Time;durP1;ratioP1;P1;durP2;ratioP2;P2;SDS_P1;SDS_P2;PMS_P1;PMS_P2;Temp;Humidity;BMP_temperature;BMP_pressure;BME280_temperature;BME280_humidity;BME280_pressure;Samples;Min_cycle;Max_cycle;Signal;HPM_P1;HPM_P2
2023/09/27 00:00:25;;;;;;;25.27;12.80;;;;;;;17.16;91.22;101650.31;2094763;28;20838;-65
2023/09/27 00:01:28;;;;;;;24.48;12.57;;;;;;;17.17;91.17;101651.13;2085529;28;20028;-65
2023/09/27 00:02:29;;;;;;;25.45;12.70;;;;;;;17.18;91.16;101648.13;2074409;28;20037;-65
2023/09/27 00:03:34;;;;;;;23.98;12.70;;;;;;;17.20;91.03;101650.53;2077961;28;20029;-64
2023/09/27 00:04:36;;;;;;;27.02;12.40;;;;;;;17.20;91.11;101645.09;2071807;28;20037;-64
2023/09/27 00:05:39;;;;;;;31.90;12.95;;;;;;;17.20;91.11;101650.53;2078708;28;20037;-65
2023/09/27 00:06:41;;;;;;;27.60;13.68;;;;;;;17.14;90.98;101644.38;2087015;28;20041;-65
2023/09/27 00:07:44;;;;;;;31.00;13.00;;;;;;;17.19;91.00;101655.19;2078890;28;20202;-66
2023/09/27 00:08:46;;;;;;;24.75;12.32;;;;;;;17.19;90.90;101651.66;2094510;28;20232;-66
2023/09/27 00:09:49;;;;;;;25.75;13.73;;;;;;;17.17;90.93;101654.66;2095185;28;20029;-65
2023/09/27 00:10:52;;;;;;;30.67;13.30;;;;;;;17.17;90.96;101646.50;2095305;28;20869;-65
2023/09/27 00:11:55;;;;;;;32.58;13.02;;;;;;;17.18;90.80;101647.31;2102234;28;20056;-66
2023/09/27 00:12:56;;;;;;;28.80;14.20;;;;;;;17.17;90.93;101646.50;2102519;27;20028;-65
2023/09/27 00:13:58;;;;;;;23.73;13.20;;;;;;;17.15;90.86;101646.00;2094338;28;20028;-65
2023/09/27 00:15:04;;;;;;;26.85;12.35;;;;;;;17.14;91.04;101642.47;2069931;28;20888;-65
2023/09/27 00:16:08;;;;;;;23.90;12.55;;;;;;;17.13;91.09;101645.50;2071487;28;20053;-65
2023/09/27 00:17:11;;;;;;;25.38;12.95;;;;;;;17.13;90.98;101645.50;2075315;28;20879;-65
2023/09/27 00:18:14;;;;;;;25.25;12.05;;;;;;;17.10;91.13;101641.44;2086767;28;20205;-65
2023/09/27 00:19:16;;;;;;;27.90;13.63;;;;;;;17.11;91.14;101643.03;2078298;28;20029;-65
2023/09/27 00:20:19;;;;;;;26.00;13.65;;;;;;;17.09;91.11;101639.84;2069882;28;20030;-68
2023/09/27 00:21:22;;;;;;;27.10;13.38;;;;;;;17.09;91.09;101634.41;2086785;28;20786;-66
2023/09/27 00:22:25;;;;;;;30.02;12.60;;;;;;;17.10;91.07;101637.94;2094200;28;20213;-65
2023/09/27 00:23:27;;;;;;;26.20;12.27;;;;;;;17.11;91.26;101643.03;2086770;28;20037;-65
2023/09/27 00:24:29;;;;;;;31.35;12.55;;;;;;;17.10;91.19;101636.00;2077797;28;20025;-65
2023/09/27 00:25:32;;;;;;;29.67;13.00;;;;;;;17.11;91.25;101639.53;2086726;28;20136;-65
2023/09/27 00:26:35;;;;;;;25.95;13.25;;;;;;;17.12;91.32;101641.16;2094068;28;20012;-66
2023/09/27 00:27:38;;;;;;;28.50;12.68;;;;;;;17.12;91.31;101641.16;2086873;28;20068;-66
2023/09/27 00:28:41;;;;;;;24.75;13.10;;;;;;;17.12;91.13;101646.59;2094573;28;20016;-68
2023/09/27 00:29:45;;;;;;;27.48;14.15;;;;;;;17.12;91.18;101641.16;2094755;28;20040;-66
2023/09/27 00:30:50;;;;;;;25.88;13.13;;;;;;;17.10;91.35;101643.34;2086056;28;20032;-65
2023/09/27 00:31:52;;;;;;;28.20;13.63;;;;;;;17.10;91.05;101640.63;2085466;28;20049;-66
2023/09/27 00:32:55;;;;;;;27.80;13.48;;;;;;;17.09;91.40;101636.31;2085351;28;20033;-67
2023/09/27 00:33:57;;;;;;;28.38;14.65;;;;;;;17.03;91.33;101637.50;2095591;28;20143;-66
2023/09/27 00:35:01;;;;;;;27.40;13.82;;;;;;;17.05;91.49;101633.34;2095130;28;20036;-66
2023/09/27 00:36:03;;;;;;;26.38;13.32;;;;;;;17.00;91.57;101635.38;2071079;28;20042;-66
2023/09/27 00:37:05;;;;;;;30.50;14.18;;;;;;;17.04;91.48;101633.66;2062824;28;20687;-66
2023/09/27 00:38:10;;;;;;;29.30;13.30;;;;;;;17.00;91.22;101633.47;2062444;28;20039;-66
2023/09/27 00:39:13;;;;;;;34.72;13.88;;;;;;;17.03;91.70;101634.78;2071130;28;20022;-66
2023/09/27 00:40:18;;;;;;;26.30;13.55;;;;;;;17.02;91.78;101649.44;2078346;28;20049;-66
2023/09/27 00:41:20;;;;;;;28.20;14.20;;;;;;;17.02;91.87;101650.25;2077578;28;20032;-65
2023/09/27 00:42:23;;;;;;;28.98;14.27;;;;;;;17.03;91.79;101638.31;2079578;28;21416;-66
2023/09/27 00:43:28;;;;;;;28.95;14.35;;;;;;;17.04;91.88;101644.53;2094750;28;20171;-66
2023/09/27 00:44:30;;;;;;;27.65;13.95;;;;;;;17.04;91.79;101636.38;2078581;28;20037;-66
2023/09/27 00:45:34;;;;;;;27.80;13.80;;;;;;;17.03;91.90;101640.22;2061880;28;21634;-66
2023/09/27 00:46:36;;;;;;;25.02;13.95;;;;;;;17.05;91.93;101638.00;2078619;28;20061;-65
2023/09/27 00:47:38;;;;;;;24.08;13.10;;;;;;;17.05;91.85;101633.34;2073960;28;20754;-66
2023/09/27 00:48:40;;;;;;;28.73;14.23;;;;;;;17.07;91.83;101643.94;2086377;28;20021;-66
2023/09/27 00:49:44;;;;;;;27.73;14.05;;;;;;;17.05;91.73;101632.56;2094197;28;20031;-66
2023/09/27 00:50:48;;;;;;;30.88;13.25;;;;;;;17.05;91.79;101643.44;2078422;28;20025;-65
2023/09/27 00:51:51;;;;;;;27.73;13.93;;;;;;;17.03;91.88;101643.75;2085899;28;20041;-66
2023/09/27 00:52:53;;;;;;;28.88;13.82;;;;;;;17.02;91.85;101633.16;2094194;28;20139;-66
2023/09/27 00:53:55;;;;;;;31.98;13.88;;;;;;;17.01;91.98;101637.78;2085979;28;20136;-66
2023/09/27 00:54:58;;;;;;;30.77;13.50;;;;;;;17.02;92.06;101644.00;2085969;28;20048;-65
2023/09/27 00:56:01;;;;;;;32.05;13.90;;;;;;;17.02;91.76;101638.59;2085415;28;20128;-66
2023/09/27 00:57:05;;;;;;;34.88;14.10;;;;;;;17.00;91.90;101636.19;2069764;28;20026;-66
2023/09/27 00:58:07;;;;;;;31.23;13.57;;;;;;;17.00;92.04;101641.59;2069992;28;20110;-66
2023/09/27 00:59:10;;;;;;;29.90;14.05;;;;;;;16.99;92.21;101628.31;2077629;28;20033;-66
2023/09/27 01:00:14;;;;;;;28.15;13.40;;;;;;;16.99;92.10;101636.47;2070384;28;20141;-66
2023/09/27 01:01:17;;;;;;;28.20;14.18;;;;;;;16.99;92.26;101633.75;2071744;28;20030;-65
2023/09/27 01:02:19;;;;;;;28.90;13.43;;;;;;;16.97;92.43;101633.25;2063645;28;20030;-66
2023/09/27 01:03:22;;;;;;;26.52;13.75;;;;;;;16.98;92.39;101627.50;2079184;28;20044;-66
2023/09/27 01:04:25;;;;;;;26.00;12.77;;;;;;;17.02;92.34;101633.94;2070390;28;20041;-66
2023/09/27 01:05:27;;;;;;;33.75;13.73;;;;;;;17.03;92.28;101632.06;2061967;28;20042;-66
2023/09/27 01:06:33;;;;;;;31.90;14.10;;;;;;;17.03;92.28;101629.34;2070869;28;20030;-66
2023/09/27 01:07:38;;;;;;;28.70;14.35;;;;;;;17.06;91.90;101623.31;2079057;28;20041;-66
2023/09/27 01:08:45;;;;;;;26.83;13.95;;;;;;;17.05;91.81;101619.78;2078298;28;20123;-66
2023/09/27 01:09:47;;;;;;;28.33;13.23;;;;;;;17.05;92.24;101621.69;2070617;28;20131;-66
2023/09/27 01:10:50;;;;;;;29.40;13.93;;;;;;;17.06;92.21;101624.13;2078058;28;20041;-66
2023/09/27 01:11:54;;;;;;;28.65;13.57;;;;;;;17.08;92.09;101623.81;2078031;28;20117;-66
2023/09/27 01:12:57;;;;;;;29.17;14.77;;;;;;;17.08;92.09;101621.09;2085740;28;20087;-66
2023/09/27 01:13:59;;;;;;;27.92;14.10;;;;;;;17.09;91.96;101625.44;2078566;28;20037;-66
2023/09/27 01:15:05;;;;;;;27.65;13.77;;;;;;;17.08;91.96;101611.03;2086771;28;20115;-65
2023/09/27 01:16:07;;;;;;;27.73;13.05;;;;;;;17.08;91.91;101618.38;2094662;28;20139;-65
2023/09/27 01:17:09;;;;;;;26.13;13.18;;;;;;;17.09;91.98;101617.31;2077256;28;20843;-65
2023/09/27 01:18:11;;;;;;;27.35;13.23;;;;;;;17.09;91.82;101617.31;2077214;28;20625;-65
2023/09/27 01:19:16;;;;;;;28.38;13.23;;;;;;;17.10;91.57;101613.47;2078785;28;20056;-65
2023/09/27 01:20:18;;;;;;;28.55;13.52;;;;;;;17.10;91.76;101614.28;2079736;28;20799;-65
2023/09/27 01:21:21;;;;;;;27.95;12.88;;;;;;;17.11;91.79;101615.06;2087572;28;20948;-65
2023/09/27 01:22:23;;;;;;;30.05;13.90;;;;;;;17.10;91.52;101608.84;2087401;28;20047;-65
2023/09/27 01:23:28;;;;;;;27.17;13.32;;;;;;;17.12;91.40;101614.00;2104691;27;20127;-65
2023/09/27 01:24:33;;;;;;;27.98;14.32;;;;;;;17.13;91.60;101615.59;2105916;27;20028;-66
2023/09/27 01:25:37;;;;;;;27.55;14.13;;;;;;;17.16;91.53;101616.91;2104763;27;20805;-66
2023/09/27 01:26:43;;;;;;;29.00;13.55;;;;;;;17.13;91.47;101613.69;2087486;28;20037;-66
2023/09/27 01:27:47;;;;;;;24.45;13.45;;;;;;;17.13;91.40;101612.88;2088850;27;20020;-65
2023/09/27 01:28:50;;;;;;;27.88;13.10;;;;;;;17.14;91.39;101614.47;2095628;28;20076;-66
2023/09/27 01:29:52;;;;;;;28.90;13.40;;;;;;;17.13;91.36;101610.97;2096006;27;20048;-66
2023/09/27 01:30:54;;;;;;;28.42;13.85;;;;;;;17.14;91.30;101617.19;2104334;27;20024;-65
2023/09/27 01:31:56;;;;;;;24.40;13.38;;;;;;;17.14;91.16;101615.28;2089172;28;20040;-66
2023/09/27 01:33:06;;;;;;;28.42;14.02;;;;;;;17.14;91.17;101615.28;2081957;28;20276;-66
2023/09/27 01:34:08;;;;;;;24.55;13.27;;;;;;;17.17;91.03;101613.88;2097157;28;20953;-65
2023/09/27 01:35:09;;;;;;;25.02;13.18;;;;;;;17.18;91.11;101615.53;2086697;28;20029;-66
2023/09/27 01:36:12;;;;;;;26.65;13.00;;;;;;;17.18;90.97;101615.53;2095692;27;20886;-66
2023/09/27 01:37:14;;;;;;;25.02;13.25;;;;;;;17.17;90.82;101619.31;2104162;27;20040;-66
2023/09/27 01:38:15;;;;;;;31.25;14.75;;;;;;;17.18;91.03;101620.13;2095628;28;20114;-66
2023/09/27 01:39:18;;;;;;;25.95;13.27;;;;;;;17.17;90.95;101624.75;2078780;28;20068;-66
2023/09/27 01:40:23;;;;;;;24.83;12.75;;;;;;;17.17;90.71;101624.75;2088352;27;20874;-66
2023/09/27 01:41:25;;;;;;;26.05;13.25;;;;;;;17.16;90.82;101623.16;2093690;28;20035;-66
2023/09/27 01:42:28;;;;;;;27.02;12.77;;;;;;;17.15;90.90;101627.00;2095746;27;20743;-66
2023/09/27 01:43:30;;;;;;;29.85;12.75;;;;;;;17.16;90.87;101616.91;2095208;28;20040;-66
2023/09/27 01:44:32;;;;;;;26.70;13.35;;;;;;;17.16;90.69;101622.34;2087398;28;20033;-66
2023/09/27 01:45:34;;;;;;;27.80;14.35;;;;;;;17.16;90.86;101620.44;2095766;28;20037;-66
2023/09/27 01:46:37;;;;;;;27.23;13.85;;;;;;;17.11;90.66;101621.31;2079111;28;20243;-66
2023/09/27 01:47:39;;;;;;;22.85;12.05;;;;;;;17.13;90.67;101619.13;2086839;27;21296;-65
2023/09/27 01:48:42;;;;;;;28.05;13.40;;;;;;;17.14;90.63;101630.78;2095970;28;20961;-66
2023/09/27 01:49:44;;;;;;;26.02;13.00;;;;;;;17.13;90.59;101626.47;2096615;27;20851;-66
2023/09/27 01:50:48;;;;;;;24.67;13.15;;;;;;;17.12;90.63;101620.22;2088271;28;20037;-66
2023/09/27 01:51:49;;;;;;;29.77;14.00;;;;;;;17.09;90.58;101611.88;2083074;28;20033;-65
2023/09/27 01:52:52;;;;;;;24.45;12.80;;;;;;;17.11;90.54;101624.03;2079945;28;20998;-66
2023/09/27 01:53:54;;;;;;;24.38;13.43;;;;;;;17.11;90.65;101615.06;2087681;28;20075;-66
2023/09/27 01:54:57;;;;;;;26.25;13.48;;;;;;;17.11;90.73;101615.06;2079142;28;20037;-65
2023/09/27 01:55:58;;;;;;;24.85;13.45;;;;;;;17.10;90.71;101619.72;2086714;28;20080;-66
2023/09/27 01:57:00;;;;;;;26.75;13.52;;;;;;;17.11;90.90;101615.06;2070595;28;21123;-66
2023/09/27 01:58:02;;;;;;;27.13;14.40;;;;;;;17.12;90.73;101622.16;2079562;28;20071;-65
2023/09/27 01:59:05;;;;;;;29.08;13.90;;;;;;;17.11;90.72;101615.88;2095437;28;20965;-66
2023/09/27 02:00:10;;;;;;;27.42;14.48;;;;;;;17.12;90.93;101616.72;2079345;28;21322;-65
2023/09/27 02:01:14;;;;;;;27.23;12.68;;;;;;;17.13;90.81;101610.16;2081416;28;21064;-65
2023/09/27 02:02:16;;;;;;;25.63;12.63;;;;;;;17.14;90.84;101614.47;2087083;28;20072;-66
2023/09/27 02:03:19;;;;;;;24.63;13.13;;;;;;;17.14;90.72;101614.47;2080732;28;21278;-65
2023/09/27 02:04:21;;;;;;;29.23;13.38;;;;;;;17.14;90.62;101619.91;2087221;28;20091;-66
2023/09/27 02:05:26;;;;;;;23.58;13.43;;;;;;;17.14;90.60;101622.63;2079039;28;20115;-65
2023/09/27 02:06:30;;;;;;;25.85;12.63;;;;;;;17.13;90.53;101621.03;2072391;28;20060;-65
2023/09/27 02:07:33;;;;;;;28.35;13.45;;;;;;;17.12;90.42;101616.72;2084210;28;21248;-66
2023/09/27 02:08:35;;;;;;;29.17;14.13;;;;;;;17.11;90.56;101615.88;2087049;28;20111;-66
2023/09/27 02:09:38;;;;;;;24.92;13.30;;;;;;;17.10;90.54;101617.00;2071187;28;20181;-66
2023/09/27 02:10:40;;;;;;;25.63;12.80;;;;;;;17.10;90.49;101621.63;2079419;28;20022;-66
2023/09/27 02:11:42;;;;;;;27.92;13.60;;;;;;;17.10;90.67;101618.91;2095005;28;20017;-66
2023/09/27 02:12:46;;;;;;;26.58;13.63;;;;;;;17.09;90.54;101622.72;2093260;28;20029;-66
2023/09/27 02:13:50;;;;;;;24.75;12.65;;;;;;;17.11;90.77;101621.31;2087421;28;20127;-66
2023/09/27 02:14:53;;;;;;;25.67;12.85;;;;;;;17.10;90.57;101619.72;2087162;28;20037;-66
2023/09/27 02:15:58;;;;;;;26.67;12.27;;;;;;;17.12;90.56;101616.72;2070672;28;20024;-66
2023/09/27 02:17:01;;;;;;;25.83;13.35;;;;;;;17.12;90.61;101620.22;2080677;27;20026;-66
2023/09/27 02:18:05;;;;;;;27.77;12.50;;;;;;;17.13;90.62;101618.31;2092424;28;20853;-65
2023/09/27 02:19:09;;;;;;;26.60;12.85;;;;;;;17.11;90.55;101620.50;2088492;28;20025;-65
2023/09/27 02:20:13;;;;;;;26.35;13.68;;;;;;;17.11;90.49;101615.06;2079716;28;20042;-65
2023/09/27 02:21:16;;;;;;;27.05;12.73;;;;;;;17.08;90.40;101612.94;2079836;28;20173;-65
2023/09/27 02:22:18;;;;;;;25.83;14.20;;;;;;;17.08;90.34;101615.66;2095161;28;21036;-66
2023/09/27 02:23:21;;;;;;;30.48;14.02;;;;;;;17.07;90.53;101614.06;2078607;28;20148;-65
2023/09/27 02:24:23;;;;;;;29.73;14.73;;;;;;;17.06;90.37;101609.75;2062731;28;20022;-65
2023/09/27 02:25:25;;;;;;;30.50;14.18;;;;;;;17.05;90.53;101610.81;2070870;28;20029;-65
2023/09/27 02:26:28;;;;;;;29.98;14.18;;;;;;;17.05;90.46;101610.81;2079811;28;20294;-65
2023/09/27 02:27:31;;;;;;;29.60;15.15;;;;;;;17.05;90.46;101610.81;2078251;28;20943;-65
2023/09/27 02:28:34;;;;;;;28.70;14.93;;;;;;;17.03;90.41;101611.13;2071092;28;20496;-65
2023/09/27 02:29:36;;;;;;;33.60;13.52;;;;;;;17.03;90.62;101604.91;2070798;28;20033;-65
2023/09/27 02:30:38;;;;;;;30.98;14.60;;;;;;;17.03;90.90;101616.56;2079144;28;20124;-65
2023/09/27 02:31:41;;;;;;;33.00;15.35;;;;;;;17.03;90.76;101610.34;2094018;28;20029;-65
2023/09/27 02:32:45;;;;;;;25.80;13.77;;;;;;;17.03;90.73;101613.06;2104122;27;20049;-65
2023/09/27 02:33:47;;;;;;;31.52;14.57;;;;;;;17.02;90.62;101616.84;2086228;28;20139;-65
2023/09/27 02:34:49;;;;;;;25.92;13.40;;;;;;;17.01;90.43;101615.25;2078627;28;20045;-65
2023/09/27 02:35:50;;;;;;;27.40;13.82;;;;;;;17.01;90.88;101613.31;2070561;28;20120;-66
2023/09/27 02:36:54;;;;;;;27.80;14.43;;;;;;;17.01;90.70;101609.81;2079180;28;20928;-66
2023/09/27 02:37:56;;;;;;;32.05;14.52;;;;;;;17.02;90.74;101611.41;2085061;28;20139;-66
2023/09/27 02:38:58;;;;;;;30.67;14.02;;;;;;;17.01;90.81;101613.31;2078834;28;20025;-66
2023/09/27 02:40:00;;;;;;;30.67;14.68;;;;;;;17.01;90.86;101602.47;2078374;28;20955;-66
2023/09/27 02:41:02;;;;;;;33.03;13.98;;;;;;;17.01;90.96;101612.53;2087557;28;20025;-66
2023/09/27 02:42:05;;;;;;;27.83;14.82;;;;;;;17.01;90.90;101607.09;2078366;28;20042;-65
2023/09/27 02:43:08;;;;;;;31.27;14.48;;;;;;;17.01;90.81;101604.38;2062790;28;20034;-66
2023/09/27 02:44:11;;;;;;;30.45;14.70;;;;;;;17.01;90.84;101609.81;2063011;28;20018;-66
2023/09/27 02:45:14;;;;;;;25.95;13.85;;;;;;;17.00;91.02;101608.22;2070943;28;20975;-66
2023/09/27 02:46:17;;;;;;;30.60;14.52;;;;;;;16.99;91.01;101606.56;2071955;28;20042;-66
2023/09/27 02:47:20;;;;;;;34.55;15.23;;;;;;;16.95;91.01;101600.13;2087772;28;20300;-66
2023/09/27 02:48:22;;;;;;;31.77;14.90;;;;;;;16.97;90.93;101608.78;2074822;28;20953;-66
2023/09/27 02:49:23;;;;;;;28.02;14.27;;;;;;;16.96;90.99;101609.88;2071044;28;20827;-66
2023/09/27 02:50:27;;;;;;;27.30;14.18;;;;;;;16.97;91.07;101608.78;2071285;28;20813;-66
2023/09/27 02:51:29;;;;;;;30.58;14.20;;;;;;;16.97;91.25;101611.50;2063258;28;20077;-64
2023/09/27 02:52:32;;;;;;;30.08;15.05;;;;;;;16.98;91.24;101602.25;2071068;28;20045;-65
2023/09/27 02:53:34;;;;;;;30.52;14.27;;;;;;;16.99;91.10;101612.00;2078945;28;20025;-64
2023/09/27 02:54:36;;;;;;;27.33;14.55;;;;;;;16.99;91.31;101614.72;2087064;28;20206;-65
2023/09/27 02:55:38;;;;;;;26.08;14.23;;;;;;;16.98;91.19;101611.19;2078005;28;20883;-65
2023/09/27 02:56:44;;;;;;;27.92;14.45;;;;;;;17.00;91.16;101605.50;2086852;28;20044;-65
2023/09/27 02:57:50;;;;;;;27.58;14.13;;;;;;;17.01;91.24;101607.91;2086589;28;20135;-64
2023/09/27 02:58:52;;;;;;;25.15;14.15;;;;;;;17.02;91.17;101608.69;2080504;28;20017;-66
2023/09/27 02:59:55;;;;;;;30.38;15.05;;;;;;;17.04;91.03;101606.50;2086698;28;21291;-66
2023/09/27 03:00:57;;;;;;;30.13;14.15;;;;;;;17.05;91.00;101602.66;2078720;28;20740;-65
2023/09/27 03:01:59;;;;;;;27.88;14.00;;;;;;;17.06;90.95;101602.38;2078051;28;20084;-65
2023/09/27 03:03:03;;;;;;;29.38;14.70;;;;;;;17.07;90.91;101603.19;2070561;28;20156;-66
2023/09/27 03:04:06;;;;;;;28.83;14.18;;;;;;;17.07;90.88;101600.47;2077452;28;20147;-65
2023/09/27 03:05:09;;;;;;;28.70;14.15;;;;;;;17.08;90.90;101611.03;2095111;28;20036;-65
2023/09/27 03:06:14;;;;;;;29.38;14.25;;;;;;;17.08;90.80;101604.78;2094607;28;20031;-66
2023/09/27 03:07:17;;;;;;;26.30;14.55;;;;;;;17.09;90.59;101606.44;2079085;28;20139;-66
2023/09/27 03:08:19;;;;;;;29.02;15.40;;;;;;;17.08;90.49;101605.59;2094669;28;20205;-66
2023/09/27 03:09:21;;;;;;;29.85;15.38;;;;;;;17.08;90.63;101602.09;2078342;28;20037;-66
2023/09/27 03:10:23;;;;;;;33.60;14.95;;;;;;;17.07;90.55;101609.44;2087175;28;20033;-66
2023/09/27 03:11:25;;;;;;;30.52;14.77;;;;;;;17.07;90.52;101616.78;2086708;28;20887;-66
2023/09/27 03:12:28;;;;;;;27.95;15.32;;;;;;;17.06;90.51;101612.47;2086804;28;20021;-65
2023/09/27 03:13:30;;;;;;;26.55;14.70;;;;;;;17.05;90.77;101610.81;2078256;28;20034;-66
2023/09/27 03:14:32;;;;;;;27.17;14.10;;;;;;;17.03;90.61;101607.63;2070725;28;20046;-65
2023/09/27 03:15:34;;;;;;;28.65;15.27;;;;;;;17.02;90.49;101611.41;2095362;28;20048;-66
2023/09/27 03:16:37;;;;;;;32.25;15.70;;;;;;;17.00;90.64;101609.00;2095207;28;20033;-66
2023/09/27 03:17:40;;;;;;;30.55;15.07;;;;;;;16.98;90.82;101605.78;2079299;28;20136;-65
2023/09/27 03:18:42;;;;;;;32.78;15.25;;;;;;;16.91;91.20;101594.47;2082247;28;20119;-66
2023/09/27 03:19:49;;;;;;;31.85;15.27;;;;;;;16.96;90.88;101608.00;2095061;28;21252;-66
2023/09/27 03:20:51;;;;;;;28.77;14.80;;;;;;;16.94;91.04;101603.94;2095278;28;20028;-66
2023/09/27 03:21:54;;;;;;;28.20;14.35;;;;;;;16.94;91.06;101603.94;2094091;28;20064;-66
2023/09/27 03:22:59;;;;;;;31.60;15.10;;;;;;;16.91;91.00;101598.00;2094921;28;20040;-65
2023/09/27 03:24:01;;;;;;;31.35;14.80;;;;;;;16.94;91.27;101601.25;2086703;28;20052;-66
2023/09/27 03:25:05;;;;;;;29.55;14.73;;;;;;;16.91;91.30;101599.91;2069989;28;20046;-66
2023/09/27 03:26:07;;;;;;;33.22;16.13;;;;;;;16.91;91.13;101599.91;2079115;28;20025;-65
2023/09/27 03:27:09;;;;;;;34.22;15.70;;;;;;;16.91;91.29;101602.63;2086697;28;20367;-66
2023/09/27 03:28:11;;;;;;;34.42;16.25;;;;;;;16.90;91.43;101609.19;2086291;28;20051;-66
2023/09/27 03:29:14;;;;;;;35.05;15.50;;;;;;;16.87;91.39;101601.63;2086776;28;20033;-65
2023/09/27 03:30:17;;;;;;;32.80;15.52;;;;;;;16.85;91.57;101604.63;2086550;28;20071;-66
2023/09/27 03:31:19;;;;;;;30.90;15.40;;;;;;;16.84;91.60;101605.72;2095243;28;20017;-66
2023/09/27 03:32:24;;;;;;;31.77;14.45;;;;;;;16.84;91.89;101600.28;2094023;28;20783;-66
2023/09/27 03:33:27;;;;;;;37.30;15.70;;;;;;;16.84;91.98;101605.72;2086302;28;20116;-65
2023/09/27 03:34:31;;;;;;;30.15;14.43;;;;;;;16.84;91.89;101597.56;2085948;28;20152;-66
2023/09/27 03:35:33;;;;;;;38.15;15.70;;;;;;;16.84;91.85;101603.00;2070807;28;20042;-65
2023/09/27 03:36:38;;;;;;;36.65;15.27;;;;;;;16.84;92.00;101600.28;2094692;28;20048;-65
2023/09/27 03:37:40;;;;;;;33.97;15.10;;;;;;;16.83;91.94;101604.09;2087318;28;20017;-65
2023/09/27 03:38:42;;;;;;;32.03;15.32;;;;;;;16.80;91.99;101604.72;2078331;28;20034;-65
2023/09/27 03:39:49;;;;;;;31.30;14.52;;;;;;;16.81;92.18;101600.88;2078842;28;20044;-65
2023/09/27 03:40:53;;;;;;;34.03;15.50;;;;;;;16.81;92.24;101590.00;2089654;28;20032;-65
2023/09/27 03:41:55;;;;;;;34.53;14.25;;;;;;;16.82;92.37;101607.91;2078569;28;20032;-65
2023/09/27 03:42:57;;;;;;;32.22;15.10;;;;;;;16.78;92.26;101593.31;2062576;28;20045;-64
2023/09/27 03:43:59;;;;;;;30.35;15.18;;;;;;;16.81;92.21;101600.06;2062841;28;20749;-65
2023/09/27 03:45:05;;;;;;;29.30;15.35;;;;;;;16.80;92.46;101598.44;2086857;28;20041;-65
2023/09/27 03:46:07;;;;;;;35.00;15.85;;;;;;;16.80;92.42;101599.28;2078711;28;20930;-65
2023/09/27 03:47:11;;;;;;;33.05;15.15;;;;;;;16.80;92.48;101598.44;2086484;28;20024;-65
2023/09/27 03:48:13;;;;;;;33.20;15.40;;;;;;;16.80;92.52;101593.00;2099737;27;20036;-65
2023/09/27 03:49:16;;;;;;;35.17;15.60;;;;;;;16.78;92.59;101601.47;2087041;28;20033;-65
2023/09/27 03:50:21;;;;;;;31.17;15.43;;;;;;;16.78;92.50;101601.47;2070881;28;20041;-65
2023/09/27 03:51:24;;;;;;;34.55;15.63;;;;;;;16.78;92.71;101601.47;2070521;28;20086;-65
2023/09/27 03:52:27;;;;;;;38.30;15.15;;;;;;;16.76;92.56;101600.16;2093924;28;20157;-66
2023/09/27 03:53:28;;;;;;;30.27;15.02;;;;;;;16.75;92.44;101606.66;2086563;28;20028;-65
2023/09/27 03:54:32;;;;;;;35.45;15.93;;;;;;;16.75;92.45;101604.78;2086340;28;20091;-65
2023/09/27 03:55:35;;;;;;;33.17;15.07;;;;;;;16.74;92.59;101603.13;2085838;28;20044;-65
2023/09/27 03:56:48;;;;;;;34.70;15.85;;;;;;;16.74;92.43;101605.84;2069985;28;20058;-65
2023/09/27 03:57:50;;;;;;;35.28;15.40;;;;;;;16.72;92.76;101602.63;2066214;28;20034;-66
2023/09/27 03:58:54;;;;;;;33.33;15.45;;;;;;;16.73;92.62;101609.66;2070647;28;20045;-66
2023/09/27 03:59:57;;;;;;;32.92;15.73;;;;;;;16.71;92.63;101611.88;2085905;28;20763;-65
2023/09/27 04:00:58;;;;;;;32.10;15.65;;;;;;;16.71;92.67;101611.88;2078884;28;20069;-66
2023/09/27 04:02:01;;;;;;;38.17;15.73;;;;;;;16.71;92.63;101611.88;2078102;28;20081;-66
2023/09/27 04:03:03;;;;;;;33.35;14.95;;;;;;;16.71;92.82;101611.88;2087269;28;20981;-66
2023/09/27 04:04:06;;;;;;;32.40;15.35;;;;;;;16.68;92.78;101607.03;2077539;28;20025;-66
2023/09/27 04:05:10;;;;;;;34.80;15.82;;;;;;;16.69;92.81;101614.06;2087443;28;20966;-66
2023/09/27 04:06:11;;;;;;;31.70;14.45;;;;;;;16.68;92.73;101613.25;2079196;28;20049;-65
2023/09/27 04:07:13;;;;;;;30.75;14.88;;;;;;;16.69;92.92;101611.34;2070718;28;20041;-65
2023/09/27 04:08:17;;;;;;;32.30;15.95;;;;;;;16.70;92.93;101612.94;2070458;28;20026;-66
2023/09/27 04:09:19;;;;;;;30.75;15.07;;;;;;;16.69;92.99;101608.63;2078628;28;20034;-66
2023/09/27 04:10:24;;;;;;;29.15;14.52;;;;;;;16.67;92.71;101617.06;2086337;28;20071;-66
2023/09/27 04:11:26;;;;;;;36.58;15.75;;;;;;;16.67;92.91;101618.97;2094547;28;20048;-66
2023/09/27 04:12:29;;;;;;;32.30;14.77;;;;;;;16.66;92.86;101609.22;2069401;28;20057;-65
2023/09/27 04:13:32;;;;;;;31.48;14.80;;;;;;;16.68;92.83;101617.88;2085993;28;20163;-65
2023/09/27 04:14:35;;;;;;;33.88;14.77;;;;;;;16.67;93.05;101611.63;2077561;28;20033;-66
2023/09/27 04:15:37;;;;;;;31.83;15.13;;;;;;;16.66;92.97;101609.22;2078697;28;20323;-66
2023/09/27 04:16:38;;;;;;;32.03;14.48;;;;;;;16.67;92.84;101608.09;2086258;28;21338;-65
2023/09/27 04:17:41;;;;;;;29.83;15.18;;;;;;;16.66;92.97;101606.50;2092256;28;20140;-66
2023/09/27 04:18:43;;;;;;;33.38;15.13;;;;;;;16.65;93.03;101604.91;2102827;28;20626;-66
2023/09/27 04:19:44;;;;;;;35.30;14.90;;;;;;;16.64;92.91;101608.69;2093728;28;20987;-65
2023/09/27 04:20:46;;;;;;;33.00;15.85;;;;;;;16.62;93.00;101600.06;2094597;28;20027;-65
2023/09/27 04:21:48;;;;;;;29.45;15.43;;;;;;;16.62;93.03;101608.19;2095704;28;20732;-65
2023/09/27 04:22:51;;;;;;;28.65;14.07;;;;;;;16.63;92.97;101601.66;2077574;28;20820;-67
2023/09/27 04:23:57;;;;;;;29.85;14.95;;;;;;;16.64;93.19;101605.97;2080178;28;20037;-67
2023/09/27 04:25:01;;;;;;;27.88;14.75;;;;;;;16.63;93.02;101601.66;2085754;28;21291;-65
2023/09/27 04:26:09;;;;;;;28.38;15.00;;;;;;;16.62;92.82;101603.56;2078564;28;20033;-65
2023/09/27 04:27:10;;;;;;;29.30;14.70;;;;;;;16.62;92.75;101598.13;2088151;27;20164;-64
2023/09/27 04:28:13;;;;;;;29.33;14.50;;;;;;;16.60;92.74;101608.47;2094236;28;20121;-65
2023/09/27 04:29:15;;;;;;;33.53;15.90;;;;;;;16.62;93.00;101605.47;2076911;28;20038;-65
2023/09/27 04:30:21;;;;;;;34.83;16.00;;;;;;;16.59;92.87;101596.00;2095500;28;20875;-65
2023/09/27 04:31:24;;;;;;;34.47;16.00;;;;;;;16.59;92.92;101597.91;2095124;28;20873;-65
2023/09/27 04:32:27;;;;;;;30.33;15.50;;;;;;;16.59;92.86;101608.78;2095071;28;20118;-65
2023/09/27 04:33:28;;;;;;;31.27;15.98;;;;;;;16.57;92.82;101602.81;2095115;28;20119;-64
2023/09/27 04:34:30;;;;;;;42.92;14.98;;;;;;;16.52;92.84;101608.31;2080749;28;20030;-65
2023/09/27 04:35:32;;;;;;;31.92;15.88;;;;;;;16.46;93.13;101599.47;2078586;28;20052;-65
2023/09/27 04:36:34;;;;;;;31.25;16.60;;;;;;;16.42;93.21;101599.25;2078680;28;20045;-64
2023/09/27 04:37:39;;;;;;;34.60;16.45;;;;;;;16.45;93.06;101606.78;2085141;28;20042;-64
2023/09/27 04:38:43;;;;;;;30.92;15.70;;;;;;;16.45;93.62;101600.53;2078435;28;20046;-65
2023/09/27 04:39:45;;;;;;;37.85;16.50;;;;;;;16.44;93.75;101607.88;2085667;28;20036;-65
2023/09/27 04:40:47;;;;;;;30.98;16.25;;;;;;;16.44;93.78;101599.75;2077164;28;20111;-66
2023/09/27 04:41:49;;;;;;;40.40;15.50;;;;;;;16.45;93.90;101604.06;2078876;28;20037;-65
2023/09/27 04:42:54;;;;;;;32.53;16.52;;;;;;;16.42;93.63;101596.53;2100920;27;20220;-65
2023/09/27 04:43:56;;;;;;;32.72;15.68;;;;;;;16.38;93.82;101595.47;2085747;28;20521;-66
2023/09/27 04:45:01;;;;;;;31.27;15.90;;;;;;;16.36;94.39;101605.84;2087608;28;20127;-65
2023/09/27 04:46:06;;;;;;;32.72;16.73;;;;;;;16.35;94.24;101597.97;2103713;27;20028;-64